sensor_id;sensor_type;location;lat;lon;timestamp;temperature;humidity
20370;DHT22;10344;47.592;9.600;2022-11-04T00:01:48;11.40;99.90
20370;DHT22;10344;47.592;9.600;2022-11-04T00:04:17;11.30;99.90
20370;DHT22;10344;47.592;9.600;2022-11-04T00:06:46;11.30;99.90
20370;DHT22;10344;47.592;9.600;2022-11-04T00:09:16;11.30;99.90
20370;DHT22;10344;47.592;9.600;2022-11-04T00:11:42;11.30;99.90
20370;DHT22;10344;47.592;9.600;2022-11-04T00:14:27;11.30;99.90
20370;DHT22;10344;47.592;9.600;2022-11-04T00:16:56;11.30;99.90
20370;DHT22;10344;47.592;9.600;2022-11-04T00:19:43;11.30;99.90
20370;DHT22;10344;47.592;9.600;2022-11-04T00:22:27;11.40;99.90
20370;DHT22;10344;47.592;9.600;2022-11-04T00:25:12;11.50;99.90
20370;DHT22;10344;47.592;9.600;2022-11-04T00:28:13;11.30;99.90
20370;DHT22;10344;47.592;9.600;2022-11-04T00:30:59;11.30;99.90
20370;DHT22;10344;47.592;9.600;2022-11-04T00:33:45;11.40;99.90
20370;DHT22;10344;47.592;9.600;2022-11-04T00:36:11;11.50;99.90
20370;DHT22;10344;47.592;9.600;2022-11-04T00:38:36;11.50;99.90
20370;DHT22;10344;47.592;9.600;2022-11-04T00:41:04;11.50;99.90
20370;DHT22;10344;47.592;9.600;2022-11-04T00:43:51;11.40;99.90
20370;DHT22;10344;47.592;9.600;2022-11-04T00:46:17;11.40;99.90
20370;DHT22;10344;47.592;9.600;2022-11-04T00:48:42;11.30;99.90
20370;DHT22;10344;47.592;9.600;2022-11-04T00:51:10;11.40;99.90
20370;DHT22;10344;47.592;9.600;2022-11-04T00:53:36;11.40;99.90
20370;DHT22;10344;47.592;9.600;2022-11-04T00:56:01;11.40;99.90
20370;DHT22;10344;47.592;9.600;2022-11-04T00:58:29;11.40;99.90
20370;DHT22;10344;47.592;9.600;2022-11-04T01:00:55;11.40;99.90
20370;DHT22;10344;47.592;9.600;2022-11-04T01:03:21;11.30;99.90
20370;DHT22;10344;47.592;9.600;2022-11-04T01:05:47;11.20;99.90
20370;DHT22;10344;47.592;9.600;2022-11-04T01:08:15;11.20;99.90
20370;DHT22;10344;47.592;9.600;2022-11-04T01:10:41;11.20;99.90
20370;DHT22;10344;47.592;9.600;2022-11-04T01:13:12;11.10;99.90
20370;DHT22;10344;47.592;9.600;2022-11-04T01:15:38;11.10;99.90
20370;DHT22;10344;47.592;9.600;2022-11-04T01:18:06;11.10;99.90
20370;DHT22;10344;47.592;9.600;2022-11-04T01:20:34;11.10;99.90
20370;DHT22;10344;47.592;9.600;2022-11-04T01:22:59;11.00;99.90
20370;DHT22;10344;47.592;9.600;2022-11-04T01:25:25;11.10;99.90
20370;DHT22;10344;47.592;9.600;2022-11-04T01:27:51;11.20;99.90
20370;DHT22;10344;47.592;9.600;2022-11-04T01:30:18;11.10;99.90
20370;DHT22;10344;47.592;9.600;2022-11-04T01:32:44;11.10;99.90
20370;DHT22;10344;47.592;9.600;2022-11-04T01:35:09;11.10;99.90
20370;DHT22;10344;47.592;9.600;2022-11-04T01:37:35;11.10;99.90
20370;DHT22;10344;47.592;9.600;2022-11-04T01:40:01;11.10;99.90
20370;DHT22;10344;47.592;9.600;2022-11-04T01:42:26;10.90;99.90
20370;DHT22;10344;47.592;9.600;2022-11-04T01:45:01;10.90;99.90
20370;DHT22;10344;47.592;9.600;2022-11-04T01:47:38;10.80;99.90
20370;DHT22;10344;47.592;9.600;2022-11-04T01:50:11;10.70;99.90
20370;DHT22;10344;47.592;9.600;2022-11-04T01:52:49;10.70;99.90
20370;DHT22;10344;47.592;9.600;2022-11-04T01:55:24;10.70;99.90
20370;DHT22;10344;47.592;9.600;2022-11-04T01:57:53;10.80;99.90
20370;DHT22;10344;47.592;9.600;2022-11-04T02:00:19;10.90;99.90
20370;DHT22;10344;47.592;9.600;2022-11-04T02:03:29;10.80;99.90
20370;DHT22;10344;47.592;9.600;2022-11-04T02:05:53;10.80;99.90
20370;DHT22;10344;47.592;9.600;2022-11-04T02:08:19;10.80;99.90
20370;DHT22;10344;47.592;9.600;2022-11-04T02:10:53;10.80;99.90
20370;DHT22;10344;47.592;9.600;2022-11-04T02:13:20;10.70;99.90
20370;DHT22;10344;47.592;9.600;2022-11-04T02:16:15;10.70;99.90
20370;DHT22;10344;47.592;9.600;2022-11-04T02:21:29;10.70;99.90
20370;DHT22;10344;47.592;9.600;2022-11-04T02:32:54;10.80;99.90
20370;DHT22;10344;47.592;9.600;2022-11-04T02:35:25;10.70;99.90
20370;DHT22;10344;47.592;9.600;2022-11-04T02:38:20;10.60;99.90
20370;DHT22;10344;47.592;9.600;2022-11-04T02:46:30;10.60;99.90
20370;DHT22;10344;47.592;9.600;2022-11-04T02:49:05;10.50;99.90
20370;DHT22;10344;47.592;9.600;2022-11-04T02:56:49;10.40;99.90
20370;DHT22;10344;47.592;9.600;2022-11-04T02:59:38;10.30;99.90
20370;DHT22;10344;47.592;9.600;2022-11-04T03:02:08;10.20;99.90
20370;DHT22;10344;47.592;9.600;2022-11-04T03:04:39;10.10;99.90
20370;DHT22;10344;47.592;9.600;2022-11-04T03:07:14;10.00;99.90
20370;DHT22;10344;47.592;9.600;2022-11-04T03:09:47;10.00;99.90
20370;DHT22;10344;47.592;9.600;2022-11-04T03:12:19;10.00;99.90
20370;DHT22;10344;47.592;9.600;2022-11-04T03:14:51;10.00;99.90
20370;DHT22;10344;47.592;9.600;2022-11-04T03:20:23;9.90;99.90
20370;DHT22;10344;47.592;9.600;2022-11-04T03:22:50;9.90;99.90
20370;DHT22;10344;47.592;9.600;2022-11-04T03:25:20;9.80;99.90
20370;DHT22;10344;47.592;9.600;2022-11-04T03:28:18;9.80;99.90
20370;DHT22;10344;47.592;9.600;2022-11-04T03:30:47;9.80;99.90
20370;DHT22;10344;47.592;9.600;2022-11-04T03:33:29;9.70;99.90
20370;DHT22;10344;47.592;9.600;2022-11-04T03:36:00;9.80;99.90
20370;DHT22;10344;47.592;9.600;2022-11-04T03:38:28;9.70;99.90
20370;DHT22;10344;47.592;9.600;2022-11-04T03:41:01;9.70;99.90
20370;DHT22;10344;47.592;9.600;2022-11-04T03:43:30;9.90;99.90
20370;DHT22;10344;47.592;9.600;2022-11-04T03:45:59;9.90;99.90
20370;DHT22;10344;47.592;9.600;2022-11-04T03:48:28;10.00;99.90
20370;DHT22;10344;47.592;9.600;2022-11-04T03:50:54;10.10;99.90
20370;DHT22;10344;47.592;9.600;2022-11-04T03:53:23;10.10;99.90
20370;DHT22;10344;47.592;9.600;2022-11-04T04:01:54;10.00;99.90
20370;DHT22;10344;47.592;9.600;2022-11-04T04:04:34;10.10;99.90
20370;DHT22;10344;47.592;9.600;2022-11-04T04:12:52;10.00;99.90
20370;DHT22;10344;47.592;9.600;2022-11-04T04:15:34;10.00;99.90
20370;DHT22;10344;47.592;9.600;2022-11-04T04:18:08;9.90;99.90
20370;DHT22;10344;47.592;9.600;2022-11-04T04:20:35;10.00;99.90
20370;DHT22;10344;47.592;9.600;2022-11-04T04:23:08;9.90;99.90
20370;DHT22;10344;47.592;9.600;2022-11-04T04:25:56;9.80;99.90
20370;DHT22;10344;47.592;9.600;2022-11-04T04:28:42;9.80;99.90
20370;DHT22;10344;47.592;9.600;2022-11-04T04:31:10;9.80;99.90
20370;DHT22;10344;47.592;9.600;2022-11-04T04:33:38;9.70;99.90
20370;DHT22;10344;47.592;9.600;2022-11-04T04:36:05;9.70;99.90
20370;DHT22;10344;47.592;9.600;2022-11-04T04:38:34;9.70;99.90
20370;DHT22;10344;47.592;9.600;2022-11-04T04:41:30;9.70;99.90
20370;DHT22;10344;47.592;9.600;2022-11-04T04:47:04;9.70;99.90
20370;DHT22;10344;47.592;9.600;2022-11-04T04:49:31;9.70;99.90
20370;DHT22;10344;47.592;9.600;2022-11-04T04:52:03;9.70;99.90
20370;DHT22;10344;47.592;9.600;2022-11-04T04:54:29;9.70;99.90
20370;DHT22;10344;47.592;9.600;2022-11-04T04:56:57;9.70;99.90
20370;DHT22;10344;47.592;9.600;2022-11-04T04:59:22;9.70;99.90
20370;DHT22;10344;47.592;9.600;2022-11-04T05:01:48;9.80;99.90
20370;DHT22;10344;47.592;9.600;2022-11-04T05:04:14;9.90;99.90
20370;DHT22;10344;47.592;9.600;2022-11-04T05:06:39;9.80;99.90
20370;DHT22;10344;47.592;9.600;2022-11-04T05:09:07;9.80;99.90
20370;DHT22;10344;47.592;9.600;2022-11-04T05:11:33;9.80;99.90
20370;DHT22;10344;47.592;9.600;2022-11-04T05:13:58;9.80;99.90
20370;DHT22;10344;47.592;9.600;2022-11-04T05:16:24;9.90;99.90
20370;DHT22;10344;47.592;9.600;2022-11-04T05:18:52;9.80;99.90
20370;DHT22;10344;47.592;9.600;2022-11-04T05:21:20;9.90;99.90
20370;DHT22;10344;47.592;9.600;2022-11-04T05:23:46;9.90;99.90
20370;DHT22;10344;47.592;9.600;2022-11-04T05:26:11;10.00;99.90
20370;DHT22;10344;47.592;9.600;2022-11-04T05:28:38;10.00;99.90
20370;DHT22;10344;47.592;9.600;2022-11-04T05:31:05;10.10;99.90
20370;DHT22;10344;47.592;9.600;2022-11-04T05:33:33;10.20;99.90
20370;DHT22;10344;47.592;9.600;2022-11-04T05:36:06;10.20;99.90
20370;DHT22;10344;47.592;9.600;2022-11-04T05:38:32;10.20;99.90
20370;DHT22;10344;47.592;9.600;2022-11-04T05:40:58;10.20;99.90
20370;DHT22;10344;47.592;9.600;2022-11-04T05:43:23;10.30;99.90
20370;DHT22;10344;47.592;9.600;2022-11-04T05:45:49;10.40;99.90
20370;DHT22;10344;47.592;9.600;2022-11-04T05:48:15;10.50;99.90
20370;DHT22;10344;47.592;9.600;2022-11-04T05:50:40;10.40;99.90
20370;DHT22;10344;47.592;9.600;2022-11-04T05:53:09;10.20;99.90
20370;DHT22;10344;47.592;9.600;2022-11-04T05:55:35;10.00;99.90
20370;DHT22;10344;47.592;9.600;2022-11-04T05:58:00;9.90;99.90
20370;DHT22;10344;47.592;9.600;2022-11-04T06:00:26;9.90;99.90
20370;DHT22;10344;47.592;9.600;2022-11-04T06:02:55;9.80;99.90
20370;DHT22;10344;47.592;9.600;2022-11-04T06:05:25;9.70;99.90
20370;DHT22;10344;47.592;9.600;2022-11-04T06:07:51;9.70;99.90
20370;DHT22;10344;47.592;9.600;2022-11-04T06:10:19;9.70;99.90
20370;DHT22;10344;47.592;9.600;2022-11-04T06:12:45;9.60;99.90
20370;DHT22;10344;47.592;9.600;2022-11-04T06:15:11;9.60;99.90
20370;DHT22;10344;47.592;9.600;2022-11-04T06:17:36;9.50;99.90
20370;DHT22;10344;47.592;9.600;2022-11-04T06:20:03;9.50;99.90
20370;DHT22;10344;47.592;9.600;2022-11-04T06:22:29;9.40;99.90
20370;DHT22;10344;47.592;9.600;2022-11-04T06:24:56;9.40;99.90
20370;DHT22;10344;47.592;9.600;2022-11-04T06:27:23;9.50;99.90
20370;DHT22;10344;47.592;9.600;2022-11-04T06:29:49;9.40;99.90
20370;DHT22;10344;47.592;9.600;2022-11-04T06:32:17;9.50;99.90
20370;DHT22;10344;47.592;9.600;2022-11-04T06:34:53;9.40;99.90
20370;DHT22;10344;47.592;9.600;2022-11-04T06:38:05;9.50;99.90
20370;DHT22;10344;47.592;9.600;2022-11-04T06:41:03;9.40;99.90
20370;DHT22;10344;47.592;9.600;2022-11-04T06:43:38;9.30;99.90
20370;DHT22;10344;47.592;9.600;2022-11-04T06:46:05;9.30;99.90
20370;DHT22;10344;47.592;9.600;2022-11-04T06:48:31;9.20;99.90
20370;DHT22;10344;47.592;9.600;2022-11-04T06:50:58;9.20;99.90
20370;DHT22;10344;47.592;9.600;2022-11-04T07:02:32;9.80;99.90
20370;DHT22;10344;47.592;9.600;2022-11-04T07:05:00;9.80;99.90
20370;DHT22;10344;47.592;9.600;2022-11-04T07:07:57;9.90;99.90
20370;DHT22;10344;47.592;9.600;2022-11-04T07:11:02;10.00;99.90
20370;DHT22;10344;47.592;9.600;2022-11-04T07:13:30;10.00;99.90
20370;DHT22;10344;47.592;9.600;2022-11-04T07:16:26;10.00;99.90
20370;DHT22;10344;47.592;9.600;2022-11-04T07:18:59;10.00;99.90
20370;DHT22;10344;47.592;9.600;2022-11-04T07:21:45;10.10;99.90
20370;DHT22;10344;47.592;9.600;2022-11-04T07:24:11;10.10;99.90
20370;DHT22;10344;47.592;9.600;2022-11-04T07:26:37;10.30;99.90
20370;DHT22;10344;47.592;9.600;2022-11-04T07:29:03;10.30;99.90
20370;DHT22;10344;47.592;9.600;2022-11-04T07:34:53;10.20;99.90
20370;DHT22;10344;47.592;9.600;2022-11-04T07:37:20;10.10;99.90
20370;DHT22;10344;47.592;9.600;2022-11-04T07:39:47;10.00;99.90
20370;DHT22;10344;47.592;9.600;2022-11-04T07:42:12;10.00;99.90
20370;DHT22;10344;47.592;9.600;2022-11-04T07:44:40;9.90;99.90
20370;DHT22;10344;47.592;9.600;2022-11-04T07:52:38;9.90;99.90
20370;DHT22;10344;47.592;9.600;2022-11-04T07:55:46;9.80;99.90
20370;DHT22;10344;47.592;9.600;2022-11-04T07:58:29;9.80;99.90
20370;DHT22;10344;47.592;9.600;2022-11-04T08:25:15;9.70;99.90
20370;DHT22;10344;47.592;9.600;2022-11-04T08:27:52;9.80;99.90
20370;DHT22;10344;47.592;9.600;2022-11-04T08:30:26;9.80;99.90
20370;DHT22;10344;47.592;9.600;2022-11-04T08:32:53;9.90;99.90
20370;DHT22;10344;47.592;9.600;2022-11-04T08:35:22;10.10;99.90
20370;DHT22;10344;47.592;9.600;2022-11-04T08:38:07;10.30;99.90
20370;DHT22;10344;47.592;9.600;2022-11-04T08:48:43;10.40;99.90
20370;DHT22;10344;47.592;9.600;2022-11-04T08:51:16;10.40;99.90
20370;DHT22;10344;47.592;9.600;2022-11-04T08:53:45;10.30;99.90
20370;DHT22;10344;47.592;9.600;2022-11-04T09:38:42;10.50;99.90
20370;DHT22;10344;47.592;9.600;2022-11-04T09:58:11;10.50;99.90
20370;DHT22;10344;47.592;9.600;2022-11-04T10:22:33;10.90;99.90
20370;DHT22;10344;47.592;9.600;2022-11-04T10:25:13;11.00;99.90
20370;DHT22;10344;47.592;9.600;2022-11-04T10:27:42;11.10;99.90
20370;DHT22;10344;47.592;9.600;2022-11-04T10:33:03;11.30;99.90
20370;DHT22;10344;47.592;9.600;2022-11-04T10:35:57;11.40;99.90
20370;DHT22;10344;47.592;9.600;2022-11-04T10:38:55;11.50;99.90
20370;DHT22;10344;47.592;9.600;2022-11-04T11:12:43;12.10;99.90
20370;DHT22;10344;47.592;9.600;2022-11-04T11:33:30;12.50;99.90
20370;DHT22;10344;47.592;9.600;2022-11-04T11:35:58;12.60;99.90
20370;DHT22;10344;47.592;9.600;2022-11-04T11:50:27;13.90;99.90
20370;DHT22;10344;47.592;9.600;2022-11-04T11:53:13;14.10;99.90
20370;DHT22;10344;47.592;9.600;2022-11-04T11:55:44;14.40;99.90
20370;DHT22;10344;47.592;9.600;2022-11-04T11:58:24;14.10;99.90
20370;DHT22;10344;47.592;9.600;2022-11-04T12:01:14;14.10;99.90
20370;DHT22;10344;47.592;9.600;2022-11-04T12:03:48;14.00;99.90
20370;DHT22;10344;47.592;9.600;2022-11-04T12:12:35;13.70;99.90
20370;DHT22;10344;47.592;9.600;2022-11-04T12:21:09;13.40;99.90
20370;DHT22;10344;47.592;9.600;2022-11-04T12:26:29;13.20;99.90
20370;DHT22;10344;47.592;9.600;2022-11-04T12:45:32;12.80;99.90
20370;DHT22;10344;47.592;9.600;2022-11-04T12:48:09;12.50;99.90
20370;DHT22;10344;47.592;9.600;2022-11-04T12:50:38;12.60;99.90
20370;DHT22;10344;47.592;9.600;2022-11-04T12:56:18;12.60;99.90
20370;DHT22;10344;47.592;9.600;2022-11-04T13:02:40;12.50;99.90
20370;DHT22;10344;47.592;9.600;2022-11-04T13:13:07;12.50;99.90
20370;DHT22;10344;47.592;9.600;2022-11-04T13:15:47;12.60;99.90
20370;DHT22;10344;47.592;9.600;2022-11-04T13:18:19;12.60;99.90
20370;DHT22;10344;47.592;9.600;2022-11-04T13:20:56;12.70;99.90
20370;DHT22;10344;47.592;9.600;2022-11-04T14:27:42;12.40;99.90
20370;DHT22;10344;47.592;9.600;2022-11-04T15:07:37;10.90;99.90
20370;DHT22;10344;47.592;9.600;2022-11-04T15:10:26;10.80;99.90
20370;DHT22;10344;47.592;9.600;2022-11-04T15:13:18;10.70;99.90
20370;DHT22;10344;47.592;9.600;2022-11-04T15:16:27;10.60;99.90
20370;DHT22;10344;47.592;9.600;2022-11-04T15:19:08;10.50;99.90
20370;DHT22;10344;47.592;9.600;2022-11-04T15:22:03;10.50;99.90
20370;DHT22;10344;47.592;9.600;2022-11-04T15:24:52;10.50;99.90
20370;DHT22;10344;47.592;9.600;2022-11-04T15:27:57;10.40;99.90
20370;DHT22;10344;47.592;9.600;2022-11-04T15:30:26;10.30;99.90
20370;DHT22;10344;47.592;9.600;2022-11-04T15:35:23;10.30;99.90
20370;DHT22;10344;47.592;9.600;2022-11-04T15:37:50;10.40;99.90
20370;DHT22;10344;47.592;9.600;2022-11-04T15:40:18;10.40;99.90
20370;DHT22;10344;47.592;9.600;2022-11-04T15:42:45;10.40;99.90
20370;DHT22;10344;47.592;9.600;2022-11-04T15:48:32;10.30;99.90
20370;DHT22;10344;47.592;9.600;2022-11-04T15:51:12;10.30;99.90
20370;DHT22;10344;47.592;9.600;2022-11-04T15:54:01;10.30;99.90
20370;DHT22;10344;47.592;9.600;2022-11-04T15:56:32;10.30;99.90
20370;DHT22;10344;47.592;9.600;2022-11-04T15:59:00;10.30;99.90
20370;DHT22;10344;47.592;9.600;2022-11-04T16:07:36;10.20;99.90
20370;DHT22;10344;47.592;9.600;2022-11-04T16:12:53;10.10;99.90
20370;DHT22;10344;47.592;9.600;2022-11-04T16:15:38;10.00;99.90
20370;DHT22;10344;47.592;9.600;2022-11-04T16:18:06;10.00;99.90
20370;DHT22;10344;47.592;9.600;2022-11-04T16:20:44;9.90;99.90
20370;DHT22;10344;47.592;9.600;2022-11-04T16:23:19;9.90;99.90
20370;DHT22;10344;47.592;9.600;2022-11-04T16:25:46;9.90;99.90
20370;DHT22;10344;47.592;9.600;2022-11-04T16:28:21;9.90;99.90
20370;DHT22;10344;47.592;9.600;2022-11-04T16:31:01;9.90;99.90
20370;DHT22;10344;47.592;9.600;2022-11-04T16:33:27;9.80;99.90
20370;DHT22;10344;47.592;9.600;2022-11-04T16:35:57;9.80;99.90
20370;DHT22;10344;47.592;9.600;2022-11-04T16:39:00;9.80;99.90
20370;DHT22;10344;47.592;9.600;2022-11-04T16:42:12;9.80;99.90
20370;DHT22;10344;47.592;9.600;2022-11-04T16:45:03;9.80;99.90
20370;DHT22;10344;47.592;9.600;2022-11-04T16:47:55;9.80;99.90
20370;DHT22;10344;47.592;9.600;2022-11-04T16:50:22;9.70;99.90
20370;DHT22;10344;47.592;9.600;2022-11-04T16:52:48;9.70;99.90
20370;DHT22;10344;47.592;9.600;2022-11-04T16:55:15;9.80;99.90
20370;DHT22;10344;47.592;9.600;2022-11-04T16:57:45;9.70;99.90
20370;DHT22;10344;47.592;9.600;2022-11-04T17:00:32;9.70;99.90
20370;DHT22;10344;47.592;9.600;2022-11-04T17:13:39;9.70;99.90
20370;DHT22;10344;47.592;9.600;2022-11-04T17:16:10;9.70;99.90
20370;DHT22;10344;47.592;9.600;2022-11-04T17:18:40;9.70;99.90
20370;DHT22;10344;47.592;9.600;2022-11-04T17:21:08;9.70;99.90
20370;DHT22;10344;47.592;9.600;2022-11-04T17:23:47;9.70;99.90
20370;DHT22;10344;47.592;9.600;2022-11-04T17:26:37;9.70;99.90
20370;DHT22;10344;47.592;9.600;2022-11-04T17:29:03;9.70;99.90
20370;DHT22;10344;47.592;9.600;2022-11-04T17:31:31;9.70;99.90
20370;DHT22;10344;47.592;9.600;2022-11-04T17:33:56;9.70;99.90
20370;DHT22;10344;47.592;9.600;2022-11-04T17:36:22;9.70;99.90
20370;DHT22;10344;47.592;9.600;2022-11-04T17:38:48;9.70;99.90
20370;DHT22;10344;47.592;9.600;2022-11-04T17:41:14;9.80;99.90
20370;DHT22;10344;47.592;9.600;2022-11-04T17:44:06;9.70;99.90
20370;DHT22;10344;47.592;9.600;2022-11-04T17:46:33;9.70;99.90
20370;DHT22;10344;47.592;9.600;2022-11-04T17:49:06;9.80;99.90
20370;DHT22;10344;47.592;9.600;2022-11-04T17:51:32;9.80;99.90
20370;DHT22;10344;47.592;9.600;2022-11-04T17:53:58;9.70;99.90
20370;DHT22;10344;47.592;9.600;2022-11-04T17:56:24;9.70;99.90
20370;DHT22;10344;47.592;9.600;2022-11-04T17:58:50;9.70;99.90
20370;DHT22;10344;47.592;9.600;2022-11-04T18:01:18;9.70;99.90
20370;DHT22;10344;47.592;9.600;2022-11-04T18:03:46;9.60;99.90
20370;DHT22;10344;47.592;9.600;2022-11-04T18:06:14;9.60;99.90
20370;DHT22;10344;47.592;9.600;2022-11-04T18:08:40;9.60;99.90
20370;DHT22;10344;47.592;9.600;2022-11-04T18:11:08;9.60;99.90
20370;DHT22;10344;47.592;9.600;2022-11-04T18:14:13;9.60;99.90
20370;DHT22;10344;47.592;9.600;2022-11-04T18:28:42;9.90;99.90
20370;DHT22;10344;47.592;9.600;2022-11-04T18:31:36;10.00;99.90
20370;DHT22;10344;47.592;9.600;2022-11-04T18:34:04;9.90;99.90
20370;DHT22;10344;47.592;9.600;2022-11-04T18:36:32;10.00;99.90
20370;DHT22;10344;47.592;9.600;2022-11-04T18:39:00;10.00;99.90
20370;DHT22;10344;47.592;9.600;2022-11-04T18:41:26;10.00;99.90
20370;DHT22;10344;47.592;9.600;2022-11-04T18:43:53;10.10;99.90
20370;DHT22;10344;47.592;9.600;2022-11-04T18:46:20;10.10;99.90
20370;DHT22;10344;47.592;9.600;2022-11-04T18:48:50;10.00;99.90
20370;DHT22;10344;47.592;9.600;2022-11-04T18:51:21;9.90;99.90
20370;DHT22;10344;47.592;9.600;2022-11-04T19:10:37;9.80;99.90
20370;DHT22;10344;47.592;9.600;2022-11-04T19:13:36;9.90;99.90
20370;DHT22;10344;47.592;9.600;2022-11-04T19:16:40;9.80;99.90
20370;DHT22;10344;47.592;9.600;2022-11-04T19:19:08;9.60;99.90
20370;DHT22;10344;47.592;9.600;2022-11-04T19:21:38;9.60;99.90
20370;DHT22;10344;47.592;9.600;2022-11-04T19:24:58;9.50;99.90
20370;DHT22;10344;47.592;9.600;2022-11-04T19:27:47;9.40;99.90
20370;DHT22;10344;47.592;9.600;2022-11-04T19:30:35;9.30;99.90
20370;DHT22;10344;47.592;9.600;2022-11-04T19:33:02;9.20;99.90
20370;DHT22;10344;47.592;9.600;2022-11-04T19:35:56;9.10;99.90
20370;DHT22;10344;47.592;9.600;2022-11-04T19:38:57;9.10;99.90
20370;DHT22;10344;47.592;9.600;2022-11-04T19:41:52;9.00;99.90
20370;DHT22;10344;47.592;9.600;2022-11-04T19:44:41;9.00;99.90
20370;DHT22;10344;47.592;9.600;2022-11-04T19:50:22;9.10;99.90
20370;DHT22;10344;47.592;9.600;2022-11-04T19:53:02;9.00;99.90
20370;DHT22;10344;47.592;9.600;2022-11-04T19:55:53;9.00;99.90
20370;DHT22;10344;47.592;9.600;2022-11-04T19:58:43;8.80;99.90
20370;DHT22;10344;47.592;9.600;2022-11-04T20:01:24;8.80;99.90
20370;DHT22;10344;47.592;9.600;2022-11-04T20:03:51;8.70;99.90
20370;DHT22;10344;47.592;9.600;2022-11-04T20:06:18;8.70;99.90
20370;DHT22;10344;47.592;9.600;2022-11-04T20:08:48;8.70;99.90
20370;DHT22;10344;47.592;9.600;2022-11-04T20:11:48;8.60;99.90
20370;DHT22;10344;47.592;9.600;2022-11-04T20:14:56;8.60;99.90
20370;DHT22;10344;47.592;9.600;2022-11-04T20:17:33;8.60;99.90
20370;DHT22;10344;47.592;9.600;2022-11-04T20:20:04;8.60;99.90
20370;DHT22;10344;47.592;9.600;2022-11-04T20:22:40;8.50;99.90
20370;DHT22;10344;47.592;9.600;2022-11-04T20:25:10;8.60;99.90
20370;DHT22;10344;47.592;9.600;2022-11-04T20:27:39;8.50;99.90
20370;DHT22;10344;47.592;9.600;2022-11-04T20:30:10;8.50;99.90
20370;DHT22;10344;47.592;9.600;2022-11-04T20:32:37;8.50;99.90
20370;DHT22;10344;47.592;9.600;2022-11-04T20:35:04;8.60;99.90
20370;DHT22;10344;47.592;9.600;2022-11-04T20:37:30;8.50;99.90
20370;DHT22;10344;47.592;9.600;2022-11-04T20:39:56;8.60;99.90
20370;DHT22;10344;47.592;9.600;2022-11-04T20:42:22;8.60;99.90
20370;DHT22;10344;47.592;9.600;2022-11-04T20:45:00;8.60;99.90
20370;DHT22;10344;47.592;9.600;2022-11-04T20:47:35;8.60;99.90
20370;DHT22;10344;47.592;9.600;2022-11-04T20:50:02;8.60;99.90
20370;DHT22;10344;47.592;9.600;2022-11-04T20:52:28;8.60;99.90
20370;DHT22;10344;47.592;9.600;2022-11-04T20:54:54;8.60;99.90
20370;DHT22;10344;47.592;9.600;2022-11-04T20:57:37;8.60;99.90
20370;DHT22;10344;47.592;9.600;2022-11-04T21:00:12;8.60;99.90
20370;DHT22;10344;47.592;9.600;2022-11-04T21:02:37;8.60;99.90
20370;DHT22;10344;47.592;9.600;2022-11-04T21:05:04;8.60;99.90
20370;DHT22;10344;47.592;9.600;2022-11-04T21:07:31;8.60;99.90
20370;DHT22;10344;47.592;9.600;2022-11-04T21:09:57;8.50;99.90
20370;DHT22;10344;47.592;9.600;2022-11-04T21:12:24;8.60;99.90
20370;DHT22;10344;47.592;9.600;2022-11-04T21:14:49;8.60;99.90
20370;DHT22;10344;47.592;9.600;2022-11-04T21:17:15;8.60;99.90
20370;DHT22;10344;47.592;9.600;2022-11-04T21:19:41;8.50;99.90
20370;DHT22;10344;47.592;9.600;2022-11-04T21:22:09;8.50;99.90
20370;DHT22;10344;47.592;9.600;2022-11-04T21:24:35;8.40;99.90
20370;DHT22;10344;47.592;9.600;2022-11-04T21:27:01;8.40;99.90
20370;DHT22;10344;47.592;9.600;2022-11-04T21:29:27;8.40;99.90
20370;DHT22;10344;47.592;9.600;2022-11-04T21:31:55;8.50;99.90
20370;DHT22;10344;47.592;9.600;2022-11-04T21:34:21;8.50;99.90
20370;DHT22;10344;47.592;9.600;2022-11-04T21:36:50;8.60;99.90
20370;DHT22;10344;47.592;9.600;2022-11-04T21:39:16;8.60;99.90
20370;DHT22;10344;47.592;9.600;2022-11-04T21:41:42;8.50;99.90
20370;DHT22;10344;47.592;9.600;2022-11-04T21:44:09;8.60;99.90
20370;DHT22;10344;47.592;9.600;2022-11-04T21:46:37;8.70;99.90
20370;DHT22;10344;47.592;9.600;2022-11-04T21:49:11;8.70;99.90
20370;DHT22;10344;47.592;9.600;2022-11-04T21:52:30;8.60;99.90
20370;DHT22;10344;47.592;9.600;2022-11-04T21:55:08;8.60;99.90
20370;DHT22;10344;47.592;9.600;2022-11-04T21:57:40;8.60;99.90
20370;DHT22;10344;47.592;9.600;2022-11-04T22:00:08;8.70;99.90
20370;DHT22;10344;47.592;9.600;2022-11-04T22:02:36;8.60;99.90
20370;DHT22;10344;47.592;9.600;2022-11-04T22:05:10;8.60;99.90
20370;DHT22;10344;47.592;9.600;2022-11-04T22:07:36;8.60;99.90
20370;DHT22;10344;47.592;9.600;2022-11-04T22:10:21;8.60;99.90
20370;DHT22;10344;47.592;9.600;2022-11-04T22:12:47;8.60;99.90
20370;DHT22;10344;47.592;9.600;2022-11-04T22:15:13;8.60;99.90
20370;DHT22;10344;47.592;9.600;2022-11-04T22:17:39;8.60;99.90
20370;DHT22;10344;47.592;9.600;2022-11-04T22:20:05;8.50;99.90
20370;DHT22;10344;47.592;9.600;2022-11-04T22:22:31;8.50;99.90
20370;DHT22;10344;47.592;9.600;2022-11-04T22:24:57;8.50;99.90
20370;DHT22;10344;47.592;9.600;2022-11-04T22:27:34;8.50;99.90
20370;DHT22;10344;47.592;9.600;2022-11-04T22:30:01;8.60;99.90
20370;DHT22;10344;47.592;9.600;2022-11-04T22:32:31;8.60;99.90
20370;DHT22;10344;47.592;9.600;2022-11-04T22:35:38;8.70;99.90
20370;DHT22;10344;47.592;9.600;2022-11-04T22:38:27;8.70;99.90
20370;DHT22;10344;47.592;9.600;2022-11-04T22:41:19;8.60;99.90
20370;DHT22;10344;47.592;9.600;2022-11-04T22:43:47;8.50;99.90
20370;DHT22;10344;47.592;9.600;2022-11-04T22:46:36;8.60;99.90
20370;DHT22;10344;47.592;9.600;2022-11-04T22:49:15;8.60;99.90
20370;DHT22;10344;47.592;9.600;2022-11-04T22:51:54;8.60;99.90
20370;DHT22;10344;47.592;9.600;2022-11-04T22:54:37;8.70;99.90
20370;DHT22;10344;47.592;9.600;2022-11-04T22:57:15;8.70;99.90
20370;DHT22;10344;47.592;9.600;2022-11-04T22:59:43;8.70;99.90
20370;DHT22;10344;47.592;9.600;2022-11-04T23:03:11;8.80;99.90
20370;DHT22;10344;47.592;9.600;2022-11-04T23:05:42;8.70;99.90
20370;DHT22;10344;47.592;9.600;2022-11-04T23:09:03;8.70;99.90
20370;DHT22;10344;47.592;9.600;2022-11-04T23:11:32;8.70;99.90
20370;DHT22;10344;47.592;9.600;2022-11-04T23:14:35;8.70;99.90
20370;DHT22;10344;47.592;9.600;2022-11-04T23:17:23;8.70;99.90
20370;DHT22;10344;47.592;9.600;2022-11-04T23:20:14;8.70;99.90
20370;DHT22;10344;47.592;9.600;2022-11-04T23:22:46;8.60;99.90
20370;DHT22;10344;47.592;9.600;2022-11-04T23:25:30;8.60;99.90
20370;DHT22;10344;47.592;9.600;2022-11-04T23:28:04;8.50;99.90
20370;DHT22;10344;47.592;9.600;2022-11-04T23:31:21;8.40;99.90
20370;DHT22;10344;47.592;9.600;2022-11-04T23:34:03;8.50;99.90
20370;DHT22;10344;47.592;9.600;2022-11-04T23:37:13;8.50;99.90
20370;DHT22;10344;47.592;9.600;2022-11-04T23:40:08;8.50;99.90
20370;DHT22;10344;47.592;9.600;2022-11-04T23:42:48;8.40;99.90
20370;DHT22;10344;47.592;9.600;2022-11-04T23:45:19;8.40;99.90
20370;DHT22;10344;47.592;9.600;2022-11-04T23:48:24;8.50;99.90